LIMJLIPQ

Guest
Details From LIMJ - Genova Sestri
To LIPQ - Ronchi Dei Legionari
Flight Number -
Tags generated
Created
Modified
Stats Distance 226 nm / 418 km
Max Altitude 27,000 ft / 8,230 m
Waypoints 4
Social Downloads 3
Likes 0
Share VATSIM

Download

Looking for another format? Having issues loading an existing format? Contact us
Advertisement - Login to hide

Notes

Basic altitude profile: - Ascent Rate: 2000ft/min - Ascent Speed: 250kts - Cruise Altitude: 28000ft - Cruise Speed: 320kts - Descent Rate: 2000ft/min - Descent Speed: 250kts

Route

LIMJ ELTAR UL612 ADOSA LIPQ

ID Type Via Altitude Latitude Longitude Leg Dist Tot Dist Heading (true) Name
O LIMJ APT - 0 ft / 0 m 44.41196˚ 8.84187˚ - 0 nm - Genova Sestri
ELTAR FIX - 27,000 ft / 8,230 m 45.64750˚ 10.62778˚ 106 nm 106 nm 45° / 46° -
ADOSA FIX UL612 (AWY-HI) 27,000 ft / 8,230 m 45.64444˚ 11.02639˚ 16 nm 122 nm 90° / 91° -
O LIPQ APT - 0 ft / 0 m 45.82786˚ 13.46666˚ 102 nm 225 nm 83° / 85° Ronchi Dei Legionari

Altitude Profile

Advertisement - Login to hide

Weather


0- 5 10 15 20 25 30 35+ Temperature / ° C

Clouds and Precipitation
Forecast for 2017-12-15 12:00 UTC. Updated 2 hours ago

Ground ~20,000 ft ~40,000 ft Winds

LIMJ

Details ICAO LIMJ (GOA)
Name Genova Sestri
Region Italy
Timezone Unknown (UTC+0.0)
Stats Elevation 13 ft / 4 m (AMSL)
Location 44.411957° 8.841866°
Runways 1
Magnetic Variation 2.388° E

METAR

LIMJ 151220Z 36004KT 320V040 9999 SCT070 14/07 Q0998

Decode

TAF

TAF LIMJ 151100Z 1512/1612 VRB05KT 9999 BKN070

Decode

Departure Runways

ID Width Length Bearing (true) Bearing (mag) Surface Threshold Offset Overrun Length
10 148 ft / 45 m 9,574 ft / 2,918 m 105.39° 103.00° Asphalt 0 ft / 0 m 0 ft / 0 m
28 148 ft / 45 m 9,574 ft / 2,918 m 285.41° 283.02° Asphalt 538 ft / 164 m 0 ft / 0 m

LIPQ

Details ICAO LIPQ (TRS)
Name Ronchi Dei Legionari
Region Italy
Timezone Europe/Rome (UTC+1.0)
Stats Elevation 37 ft / 11 m (AMSL)
Location 45.827857° 13.466663°
Runways 1
Magnetic Variation 3.431° E

METAR

LIPQ 151220Z 19006KT 9999 -RA BKN025 12/09 Q0998

Decode

TAF

TAF LIPQ 151100Z 1512/1612 VRB06KT 8000 BKN030 TEMPO 1520/1606 4000 SHRA

Decode

Destination Runways

ID Width Length Bearing (true) Bearing (mag) Surface Threshold Offset Overrun Length
09 148 ft / 45 m 9,819 ft / 2,993 m 90.42° 86.99° Asphalt 823 ft / 251 m 0 ft / 0 m
27 148 ft / 45 m 9,819 ft / 2,993 m 270.44° 267.01° Asphalt 10 ft / 3 m 190 ft / 58 m

Approach Navaids

Runway Type Ident Frequency Range Bearing (true) Bearing (mag) Slope Elevation
09 Localiser RNC 110.75 MHz 18 nm / 33 km 90.43° 87.00° - 43 ft / 13 m (AMSL)
09 Glidescope RNC 110.75 MHz 10 nm / 19 km 90.43° 87.00° 3.00° 82 ft / 25 m (AMSL)
09 DME RNC 110.75 MHz 18 nm / 33 km - - - 53 ft / 16 m (AMSL)

Popular Alternatives